Aviation Digital Data Service (ADDS)

Output produced by METARs form (1734 UTC 30 October 2020)
found at http://www.aviationweather.gov/metar/data/
 
KSAV 301653Z 33007KT 10SM CLR 21/10 A3001 RMK AO2 SLP160 T02060100
KSAV 301725Z 3018/3118 32011KT P6SM SKC 
     FM302300 02006KT P6SM SKC 
     FM311400 05012G17KT P6SM SCT025 SCT050